createdAt,value
2022-12-03T00:01:29.148Z,36.40
2022-12-03T00:06:34.482Z,32.40
2022-12-03T00:11:36.692Z,31.70
2022-12-03T00:16:38.440Z,32.90
2022-12-03T00:26:41.924Z,35.70
2022-12-03T00:31:45.736Z,34.60
2022-12-03T00:36:48.780Z,36.10
2022-12-03T00:41:50.498Z,32.00
2022-12-03T00:46:53.158Z,32.50
2022-12-03T00:51:55.035Z,34.10
2022-12-03T00:56:56.885Z,33.00
2022-12-03T01:01:58.653Z,34.10
2022-12-03T01:07:01.135Z,34.20
2022-12-03T01:12:03.050Z,33.00
2022-12-03T01:17:05.325Z,33.10
2022-12-03T01:22:08.107Z,33.10
2022-12-03T01:27:09.869Z,34.50
2022-12-03T01:32:17.944Z,32.70
2022-12-03T01:37:21.967Z,33.10
2022-12-03T01:42:29.060Z,32.70
2022-12-03T01:47:34.535Z,33.40
2022-12-03T01:52:39.245Z,32.10
2022-12-03T01:58:01.973Z,37.40
2022-12-03T02:03:11.703Z,38.40
2022-12-03T02:08:37.759Z,53.10
2022-12-03T02:13:40.243Z,39.80
2022-12-03T02:18:43.452Z,38.90
2022-12-03T02:23:54.448Z,44.00
2022-12-03T02:28:56.927Z,29.30
2022-12-03T02:33:58.819Z,33.10
2022-12-03T02:39:01.416Z,37.00
2022-12-03T02:44:06.186Z,35.90
2022-12-03T02:49:08.248Z,37.70
2022-12-03T02:54:10.010Z,35.80
2022-12-03T02:59:12.107Z,36.00
2022-12-03T03:04:14.094Z,35.50
2022-12-03T03:09:15.837Z,34.70
2022-12-03T03:14:17.646Z,33.60
2022-12-03T03:19:19.448Z,31.30
2022-12-03T03:24:23.766Z,32.80
2022-12-03T03:29:25.654Z,34.90
2022-12-03T03:34:28.112Z,34.60
2022-12-03T03:39:30.013Z,35.20
2022-12-03T03:44:33.017Z,34.50
2022-12-03T03:49:35.508Z,34.30
2022-12-03T03:54:38.723Z,34.70
2022-12-03T03:59:41.425Z,34.90
2022-12-03T04:04:43.305Z,34.30
2022-12-03T04:09:45.441Z,33.80
2022-12-03T04:14:47.266Z,35.90
2022-12-03T04:19:50.168Z,32.80
2022-12-03T04:29:54.059Z,31.30
2022-12-03T04:35:16.098Z,36.50
2022-12-03T04:40:36.803Z,35.30
2022-12-03T04:45:38.562Z,38.00
2022-12-03T04:50:40.461Z,34.70
2022-12-03T04:55:42.444Z,35.60
2022-12-03T05:00:44.183Z,32.80
2022-12-03T05:10:48.183Z,37.90
2022-12-03T05:15:49.965Z,34.10
2022-12-03T05:20:53.667Z,36.70
2022-12-03T05:25:55.768Z,37.50
2022-12-03T05:30:57.706Z,40.20
2022-12-03T05:36:00.147Z,35.50
2022-12-03T05:41:01.928Z,36.50
2022-12-03T05:46:03.777Z,37.50
2022-12-03T05:51:05.785Z,37.80
2022-12-03T05:56:07.746Z,41.10
2022-12-03T06:01:09.488Z,37.80
2022-12-03T06:11:12.995Z,37.10
2022-12-03T06:16:15.044Z,40.20
2022-12-03T06:21:16.858Z,41.90
2022-12-03T06:36:23.491Z,43.00
2022-12-03T06:41:25.397Z,42.10
2022-12-03T06:46:27.362Z,41.30
2022-12-03T06:51:29.258Z,42.90
2022-12-03T06:56:36.822Z,40.60
2022-12-03T07:01:40.229Z,41.40
2022-12-03T07:06:42.036Z,38.80
2022-12-03T07:11:43.945Z,43.90
2022-12-03T07:16:46.027Z,60.70
2022-12-03T07:21:48.624Z,86.70
2022-12-03T07:26:50.404Z,53.10
2022-12-03T07:31:52.367Z,50.20
2022-12-03T07:36:54.275Z,51.10
2022-12-03T07:52:00.109Z,38.70
2022-12-03T07:57:02.382Z,44.20
2022-12-03T08:02:04.422Z,49.70
2022-12-03T08:07:06.360Z,51.20
2022-12-03T08:12:17.058Z,50.80
2022-12-03T08:17:21.380Z,50.30
2022-12-03T08:22:24.704Z,52.20
2022-12-03T08:27:26.476Z,51.20
2022-12-03T08:32:28.252Z,48.00
2022-12-03T08:37:30.147Z,47.80
2022-12-03T08:42:43.032Z,48.20
2022-12-03T08:47:44.846Z,53.20
2022-12-03T08:52:46.588Z,53.30
2022-12-03T08:57:48.482Z,56.30
2022-12-03T09:02:59.495Z,50.70
2022-12-03T09:08:01.419Z,46.60
2022-12-03T09:13:03.431Z,45.50
2022-12-03T09:18:07.439Z,41.30
2022-12-03T09:23:09.236Z,48.40
2022-12-03T09:28:10.982Z,49.00
2022-12-03T09:33:14.162Z,45.00
2022-12-03T09:38:15.979Z,46.90
2022-12-03T09:43:18.595Z,44.60
2022-12-03T09:48:20.959Z,47.30
2022-12-03T09:53:25.964Z,47.60
2022-12-03T09:58:34.324Z,50.10
2022-12-03T10:03:41.155Z,51.70
2022-12-03T10:08:43.191Z,49.70
2022-12-03T10:13:46.231Z,48.50
2022-12-03T10:18:51.444Z,50.80
2022-12-03T10:24:29.683Z,58.70
2022-12-03T10:29:34.861Z,55.20
2022-12-03T10:34:41.948Z,49.20
2022-12-03T10:40:12.028Z,55.50
2022-12-03T10:45:16.017Z,56.10
2022-12-03T10:50:20.275Z,53.90
2022-12-03T10:55:22.270Z,47.20
2022-12-03T11:00:24.208Z,54.30
2022-12-03T11:05:28.600Z,52.60
2022-12-03T11:10:30.527Z,57.40
2022-12-03T11:15:44.453Z,55.20
2022-12-03T11:20:46.476Z,51.80
2022-12-03T11:25:50.723Z,58.60
2022-12-03T11:30:56.687Z,57.30
2022-12-03T11:36:04.589Z,62.30
2022-12-03T11:41:27.502Z,56.30
2022-12-03T11:46:47.568Z,59.30
2022-12-03T11:51:50.068Z,58.20
2022-12-03T11:56:53.901Z,57.20
2022-12-03T12:01:55.788Z,50.90
2022-12-03T12:06:57.670Z,57.30
2022-12-03T12:12:37.859Z,61.30
2022-12-03T12:17:39.717Z,58.10
2022-12-03T12:22:41.535Z,58.70
2022-12-03T12:27:47.471Z,53.20
2022-12-03T12:33:01.850Z,55.50
2022-12-03T12:38:07.858Z,62.00
2022-12-03T12:43:27.925Z,66.80
2022-12-03T12:48:35.212Z,56.90
2022-12-03T12:53:39.668Z,59.20
2022-12-03T12:58:42.272Z,59.20
2022-12-03T13:03:44.151Z,57.90
2022-12-03T13:08:49.027Z,62.00
2022-12-03T13:13:52.005Z,63.80
2022-12-03T13:18:55.728Z,61.10
2022-12-03T13:23:58.173Z,64.20
2022-12-03T13:29:06.447Z,65.00
2022-12-03T13:34:16.460Z,66.70
2022-12-03T13:39:38.721Z,66.60
2022-12-03T13:44:45.650Z,73.20
2022-12-03T13:49:56.937Z,72.90
2022-12-03T13:55:03.555Z,66.00
2022-12-03T14:00:06.350Z,72.00
2022-12-03T14:05:14.763Z,63.10
2022-12-03T14:10:17.093Z,62.00
2022-12-03T14:15:19.075Z,59.80
2022-12-03T14:20:20.950Z,64.50
2022-12-03T14:25:22.833Z,67.40
2022-12-03T14:30:24.709Z,67.60
2022-12-03T14:35:26.588Z,67.20
2022-12-03T14:40:28.467Z,64.40
2022-12-03T14:45:30.806Z,60.30
2022-12-03T14:50:32.742Z,60.70
2022-12-03T14:55:34.550Z,61.30
2022-12-03T15:00:36.502Z,74.40
2022-12-03T15:05:38.283Z,63.30
2022-12-03T15:10:40.155Z,57.00
2022-12-03T15:15:41.938Z,52.90
2022-12-03T15:20:43.918Z,55.70
2022-12-03T15:25:46.028Z,66.80
2022-12-03T15:30:48.084Z,65.90
2022-12-03T15:35:49.968Z,65.00
2022-12-03T15:40:52.358Z,61.50
2022-12-03T15:45:54.679Z,69.70
2022-12-03T15:50:56.437Z,66.00
2022-12-03T15:55:59.771Z,66.00
2022-12-03T16:01:01.638Z,63.50
2022-12-03T16:06:03.700Z,68.30
2022-12-03T16:11:05.648Z,68.50
2022-12-03T16:16:07.773Z,69.90
2022-12-03T16:21:09.704Z,69.90
2022-12-03T16:26:11.502Z,72.60
2022-12-03T16:31:13.428Z,75.80
2022-12-03T16:36:15.752Z,71.90
2022-12-03T16:41:18.369Z,76.10
2022-12-03T16:46:21.187Z,74.30
2022-12-03T16:51:23.270Z,82.30
2022-12-03T16:56:25.163Z,73.00
2022-12-03T17:01:27.024Z,77.10
2022-12-03T17:06:28.876Z,63.20
2022-12-03T17:11:30.658Z,61.60
2022-12-03T17:16:32.509Z,65.60
2022-12-03T17:21:35.283Z,56.80
2022-12-03T17:26:37.155Z,61.90
2022-12-03T17:31:42.259Z,64.20
2022-12-03T17:36:44.555Z,57.30
2022-12-03T17:46:49.060Z,61.10
2022-12-03T17:51:50.863Z,59.10
2022-12-03T17:56:52.785Z,54.00
2022-12-03T18:01:54.583Z,55.60
2022-12-03T18:07:00.835Z,65.40
2022-12-03T18:12:04.605Z,63.10
2022-12-03T18:17:06.673Z,57.10
2022-12-03T18:22:09.193Z,62.50
2022-12-03T18:27:11.181Z,61.30
2022-12-03T18:32:27.698Z,59.80
2022-12-03T18:37:32.210Z,62.20
2022-12-03T18:42:33.943Z,66.70
2022-12-03T18:47:36.036Z,66.80
2022-12-03T18:52:38.325Z,70.00
2022-12-03T18:57:40.150Z,70.70
2022-12-03T19:08:04.602Z,64.90
2022-12-03T19:13:06.558Z,60.90
2022-12-03T19:18:08.449Z,61.10
2022-12-03T19:23:10.381Z,61.10
2022-12-03T19:28:12.123Z,52.20
2022-12-03T19:33:17.993Z,53.30
2022-12-03T19:38:20.327Z,50.20
2022-12-03T19:43:22.093Z,54.90
2022-12-03T19:48:23.930Z,55.70
2022-12-03T19:53:27.216Z,47.90
2022-12-03T19:58:29.558Z,50.20
2022-12-03T20:03:31.317Z,52.70
2022-12-03T20:08:37.258Z,49.90
2022-12-03T20:13:39.491Z,58.10
2022-12-03T20:18:43.315Z,55.40
2022-12-03T20:23:46.207Z,56.30
2022-12-03T20:28:49.150Z,51.80
2022-12-03T20:33:54.490Z,48.20
2022-12-03T20:38:59.218Z,60.90
2022-12-03T20:44:02.554Z,55.50
2022-12-03T20:49:04.937Z,55.80
2022-12-03T20:54:06.831Z,59.60
2022-12-03T20:59:12.379Z,60.80
2022-12-03T21:04:16.092Z,56.60
2022-12-03T21:09:17.989Z,63.70
2022-12-03T21:14:19.761Z,61.50
2022-12-03T21:19:21.975Z,55.80
2022-12-03T21:24:23.801Z,51.30
2022-12-03T21:29:25.578Z,53.10
2022-12-03T21:34:32.583Z,54.10
2022-12-03T21:39:37.572Z,52.90
2022-12-03T21:44:39.397Z,51.40
2022-12-03T21:49:41.427Z,54.00
2022-12-03T21:54:43.234Z,54.90
2022-12-03T21:59:45.126Z,48.70
2022-12-03T22:04:50.870Z,48.20
2022-12-03T22:15:03.011Z,54.30
2022-12-03T22:20:06.965Z,56.30
2022-12-03T22:25:09.470Z,58.60
2022-12-03T22:30:11.502Z,58.80
2022-12-03T22:35:13.291Z,58.80
2022-12-03T22:40:15.363Z,58.40
2022-12-03T22:45:17.093Z,53.50
2022-12-03T23:00:30.234Z,56.70
2022-12-03T23:05:38.620Z,58.20
2022-12-03T23:10:43.943Z,66.50
2022-12-03T23:15:51.547Z,67.40
2022-12-03T23:20:55.536Z,58.50
2022-12-03T23:26:10.135Z,60.90
2022-12-03T23:31:23.035Z,61.70
2022-12-03T23:36:27.600Z,59.30
2022-12-03T23:41:29.537Z,59.00
2022-12-03T23:46:31.350Z,50.60
2022-12-03T23:51:33.159Z,54.00
2022-12-03T23:56:34.916Z,52.10
